Terminal Aerodrome Forecast
Issued by NWS Wilmington, NC

Home | Current Version | Previous Version | Text Only | Print | Product List | Glossary On
Versions: 1 2 3 4 5 6 7 8 9 10 11 12 13 14 15 16 17 18 19 20 21 22 23 24 25
000
FTUS42 KILM 031100
TAFILM
TAF
KILM 031137Z 0312/0412 07008KT P6SM -RA OVC040
     FM031700 07008KT 6SM -RA OVC025
     FM032000 07008KT 5SM -RA BR OVC015
     FM032300 12005KT 3SM -RA BR OVC007
     FM040100 VRB05KT 2SM -RA BR OVC004
     FM040400 21008KT 5SM BR VCSH BKN004 BKN012 BKN100=

USA.gov is the U.S. government's official web portal to all federal, state and local government web resources and services.